createdAt,value
2019-02-25T00:00:12.447Z,33.80
2019-02-25T00:01:15.458Z,33.60
2019-02-25T00:02:18.405Z,33.50
2019-02-25T00:03:19.517Z,33.30
2019-02-25T00:04:20.520Z,33.40
2019-02-25T00:05:21.536Z,33.20
2019-02-25T00:06:22.540Z,33.30
2019-02-25T00:07:23.553Z,33.20
2019-02-25T00:08:24.574Z,33.40
2019-02-25T00:09:25.592Z,33.10
2019-02-25T00:10:26.599Z,32.90
2019-02-25T00:11:27.619Z,32.40
2019-02-25T00:12:28.647Z,32.20
2019-02-25T00:13:29.692Z,32.00
2019-02-25T00:14:30.700Z,31.80
2019-02-25T00:15:31.744Z,32.20
2019-02-25T00:16:32.849Z,32.10
2019-02-25T00:17:34.564Z,32.00
2019-02-25T00:18:35.575Z,32.00
2019-02-25T00:19:36.593Z,32.00
2019-02-25T00:20:37.907Z,31.40
2019-02-25T00:21:38.929Z,31.10
2019-02-25T00:22:39.945Z,30.70
2019-02-25T00:23:40.960Z,30.50
2019-02-25T00:24:41.971Z,30.40
2019-02-25T00:25:42.986Z,30.50
2019-02-25T00:26:44.101Z,30.50
2019-02-25T00:27:45.125Z,31.10
2019-02-25T00:28:46.252Z,32.30
2019-02-25T00:29:47.268Z,32.40
2019-02-25T00:30:48.293Z,32.40
2019-02-25T00:31:49.297Z,32.40
2019-02-25T00:32:50.329Z,32.00
2019-02-25T00:33:51.339Z,32.70
2019-02-25T00:34:52.360Z,31.70
2019-02-25T00:35:53.421Z,31.80
2019-02-25T00:36:54.476Z,32.30
2019-02-25T00:37:55.491Z,32.50
2019-02-25T00:38:56.512Z,32.30
2019-02-25T00:39:57.536Z,32.00
2019-02-25T00:40:58.555Z,31.40
2019-02-25T00:41:59.775Z,31.20
2019-02-25T00:43:00.820Z,31.10
2019-02-25T00:44:01.840Z,31.40
2019-02-25T00:45:06.193Z,32.10
2019-02-25T00:46:07.288Z,32.60
2019-02-25T00:47:08.300Z,33.10
2019-02-25T00:48:09.332Z,32.90
2019-02-25T00:49:10.349Z,32.80
2019-02-25T00:50:15.181Z,32.40
2019-02-25T00:51:16.212Z,32.70
2019-02-25T00:52:17.212Z,32.80
2019-02-25T00:53:18.335Z,32.70
2019-02-25T00:54:19.348Z,32.70
2019-02-25T00:55:20.363Z,33.20
2019-02-25T00:56:21.388Z,33.70
2019-02-25T00:57:22.396Z,33.50
2019-02-25T00:58:23.426Z,33.30
2019-02-25T00:59:24.431Z,33.20
2019-02-25T01:00:25.452Z,33.30
2019-02-25T01:01:26.475Z,33.50
2019-02-25T01:02:27.488Z,34.40
2019-02-25T01:03:28.532Z,34.50
2019-02-25T01:04:29.680Z,34.30
2019-02-25T01:05:30.684Z,34.50
2019-02-25T01:06:31.693Z,33.80
2019-02-25T01:07:32.709Z,33.60
2019-02-25T01:08:33.756Z,33.30
2019-02-25T01:09:34.868Z,33.10
2019-02-25T01:10:35.881Z,33.00
2019-02-25T01:11:36.905Z,33.10
2019-02-25T01:12:38.200Z,33.30
2019-02-25T01:13:39.229Z,33.40
2019-02-25T01:14:40.242Z,34.10
2019-02-25T01:15:41.248Z,34.40
2019-02-25T01:16:42.267Z,35.10
2019-02-25T01:17:43.316Z,35.20
2019-02-25T01:18:44.645Z,35.40
2019-02-25T01:19:45.917Z,35.90
2019-02-25T01:20:46.919Z,35.10
2019-02-25T01:21:47.927Z,35.20
2019-02-25T01:22:48.936Z,35.20
2019-02-25T01:23:49.991Z,35.10
2019-02-25T01:24:51.000Z,35.10
2019-02-25T01:25:52.009Z,35.10
2019-02-25T01:26:53.022Z,35.40
2019-02-25T01:27:54.040Z,35.60
2019-02-25T01:28:55.075Z,36.10
2019-02-25T01:29:56.091Z,35.80
2019-02-25T01:30:57.112Z,36.20
2019-02-25T01:31:58.130Z,36.20
2019-02-25T01:32:59.160Z,36.30
2019-02-25T01:34:00.344Z,36.20
2019-02-25T01:35:01.370Z,36.40
2019-02-25T01:36:02.745Z,36.60
2019-02-25T01:37:03.770Z,36.90
2019-02-25T01:38:04.788Z,37.10
2019-02-25T01:39:06.330Z,37.50
2019-02-25T01:40:09.744Z,37.50
2019-02-25T01:41:10.758Z,37.90
2019-02-25T01:42:11.999Z,37.70
2019-02-25T01:43:13.016Z,37.70
2019-02-25T01:44:14.034Z,37.50
2019-02-25T01:45:16.772Z,37.70
2019-02-25T01:46:17.854Z,38.00
2019-02-25T01:47:18.865Z,37.80
2019-02-25T01:48:19.890Z,38.10
2019-02-25T01:49:20.904Z,38.50
2019-02-25T01:50:21.917Z,38.50
2019-02-25T01:51:23.200Z,38.50
2019-02-25T01:52:24.227Z,38.40
2019-02-25T01:53:25.236Z,38.40
2019-02-25T01:54:26.260Z,38.40
2019-02-25T01:55:27.264Z,38.60
2019-02-25T01:56:28.281Z,38.60
2019-02-25T01:57:29.288Z,38.70
2019-02-25T01:58:30.381Z,38.40
2019-02-25T01:59:31.415Z,38.40
2019-02-25T02:00:32.428Z,38.40
2019-02-25T02:01:33.435Z,38.10
2019-02-25T02:02:34.456Z,37.90
2019-02-25T02:03:35.469Z,37.90
2019-02-25T02:04:36.488Z,37.90
2019-02-25T02:05:37.508Z,37.50
2019-02-25T02:06:38.528Z,37.40
2019-02-25T02:07:39.539Z,37.00
2019-02-25T02:08:40.570Z,36.80
2019-02-25T02:09:41.595Z,36.90
2019-02-25T02:10:42.601Z,37.00
2019-02-25T02:11:43.623Z,37.20
2019-02-25T02:12:44.628Z,37.40
2019-02-25T02:13:45.643Z,37.40
2019-02-25T02:14:46.667Z,37.70
2019-02-25T02:15:47.678Z,37.50
2019-02-25T02:16:48.684Z,37.60
2019-02-25T02:17:49.700Z,37.70
2019-02-25T02:18:50.704Z,37.20
2019-02-25T02:19:51.729Z,36.90
2019-02-25T02:20:52.799Z,36.60
2019-02-25T02:21:53.816Z,36.40
2019-02-25T02:22:54.905Z,36.40
2019-02-25T02:23:55.988Z,36.50
2019-02-25T02:24:57.020Z,36.50
2019-02-25T02:25:58.052Z,36.60
2019-02-25T02:26:59.056Z,36.80
2019-02-25T02:28:00.128Z,37.10
2019-02-25T02:29:01.225Z,37.20
2019-02-25T02:30:05.145Z,36.90
2019-02-25T02:31:06.162Z,36.70
2019-02-25T02:32:07.184Z,36.60
2019-02-25T02:33:08.213Z,36.50
2019-02-25T02:34:09.209Z,37.00
2019-02-25T02:35:10.347Z,36.90
2019-02-25T02:36:11.807Z,36.50
2019-02-25T02:37:12.960Z,36.50
2019-02-25T02:38:13.979Z,37.00
2019-02-25T02:39:15.003Z,36.80
2019-02-25T02:40:16.024Z,37.10
2019-02-25T02:41:17.029Z,37.40
2019-02-25T02:42:19.168Z,37.50
2019-02-25T02:43:20.264Z,37.70
2019-02-25T02:44:21.286Z,38.00
2019-02-25T02:45:26.012Z,37.90
2019-02-25T02:46:46.109Z,38.20
2019-02-25T02:47:52.677Z,38.20
2019-02-25T02:48:57.304Z,37.80
2019-02-25T02:50:00.278Z,36.80
2019-02-25T02:51:01.285Z,38.10
2019-02-25T02:52:02.296Z,38.60
2019-02-25T02:53:03.543Z,38.90
2019-02-25T02:54:04.617Z,38.90
2019-02-25T02:55:06.639Z,38.90
2019-02-25T02:56:07.665Z,39.80
2019-02-25T02:57:08.671Z,39.40
2019-02-25T02:58:09.684Z,39.30
2019-02-25T02:59:10.692Z,39.30
2019-02-25T03:00:14.119Z,39.40
2019-02-25T03:01:15.128Z,39.50
2019-02-25T03:02:16.139Z,39.70
2019-02-25T03:03:17.156Z,39.70
2019-02-25T03:04:18.432Z,39.70
2019-02-25T03:05:19.641Z,38.80
2019-02-25T03:06:20.657Z,38.50
2019-02-25T03:07:21.678Z,39.50
2019-02-25T03:08:22.702Z,40.00
2019-02-25T03:09:23.712Z,39.00
2019-02-25T03:10:24.737Z,37.90
2019-02-25T03:11:25.754Z,37.50
2019-02-25T03:12:26.765Z,37.60
2019-02-25T03:13:27.786Z,37.90
2019-02-25T03:14:28.816Z,37.90
2019-02-25T03:15:29.878Z,37.90
2019-02-25T03:16:30.896Z,37.90
2019-02-25T03:17:31.989Z,37.90
2019-02-25T03:18:33.004Z,37.90
2019-02-25T03:19:34.017Z,38.00
2019-02-25T03:20:35.047Z,37.80
2019-02-25T03:21:36.061Z,37.60
2019-02-25T03:22:37.082Z,37.50
2019-02-25T03:23:38.098Z,38.00
2019-02-25T03:24:39.103Z,38.60
2019-02-25T03:25:40.152Z,37.90
2019-02-25T03:26:41.160Z,38.00
2019-02-25T03:27:42.176Z,37.90
2019-02-25T03:28:43.193Z,38.30
2019-02-25T03:29:44.204Z,38.20
2019-02-25T03:30:45.238Z,38.50
2019-02-25T03:31:46.255Z,39.80
2019-02-25T03:32:47.383Z,39.30
2019-02-25T03:33:48.389Z,39.80
2019-02-25T03:34:49.402Z,39.90
2019-02-25T03:35:50.440Z,40.10
2019-02-25T03:36:51.448Z,40.40
2019-02-25T03:37:52.463Z,40.50
2019-02-25T03:38:53.473Z,40.50
2019-02-25T03:39:54.484Z,40.60
2019-02-25T03:40:55.508Z,40.60
2019-02-25T03:41:56.525Z,41.10
2019-02-25T03:42:57.835Z,41.00
2019-02-25T03:43:59.045Z,40.80
2019-02-25T03:45:00.107Z,40.20
2019-02-25T03:46:01.568Z,40.50
2019-02-25T03:47:02.594Z,40.50
2019-02-25T03:48:03.601Z,40.20
2019-02-25T03:49:04.632Z,39.80
2019-02-25T03:50:06.439Z,39.90
2019-02-25T03:51:08.016Z,39.60
2019-02-25T03:52:09.185Z,39.40
2019-02-25T03:53:10.193Z,39.10
2019-02-25T03:54:11.207Z,39.60
2019-02-25T03:55:16.818Z,40.20
2019-02-25T03:56:17.830Z,40.30
2019-02-25T03:57:18.840Z,40.60
2019-02-25T03:58:19.848Z,41.20
2019-02-25T03:59:20.863Z,41.80
2019-02-25T04:00:24.285Z,41.90
2019-02-25T04:01:25.313Z,42.00
2019-02-25T04:02:26.315Z,42.40
2019-02-25T04:03:27.337Z,42.60
2019-02-25T04:04:28.548Z,42.50
2019-02-25T04:05:29.662Z,42.40
2019-02-25T04:06:30.689Z,42.70
2019-02-25T04:07:31.767Z,43.00
2019-02-25T04:08:32.781Z,43.40
2019-02-25T04:09:33.800Z,43.10
2019-02-25T04:10:34.814Z,43.60
2019-02-25T04:11:35.841Z,43.10
2019-02-25T04:12:36.846Z,44.00
2019-02-25T04:13:37.853Z,43.40
2019-02-25T04:14:39.208Z,43.40
2019-02-25T04:15:42.141Z,43.40
2019-02-25T04:16:43.168Z,43.50
2019-02-25T04:17:44.385Z,43.70
2019-02-25T04:18:45.388Z,43.40
2019-02-25T04:19:46.400Z,42.90
2019-02-25T04:20:47.414Z,42.70
2019-02-25T04:21:48.428Z,41.90
2019-02-25T04:22:49.451Z,42.10
2019-02-25T04:23:50.458Z,42.20
2019-02-25T04:24:51.476Z,42.30
2019-02-25T04:25:55.655Z,42.30
2019-02-25T04:26:56.679Z,42.10
2019-02-25T04:27:57.688Z,42.00
2019-02-25T04:28:58.699Z,42.00
2019-02-25T04:29:59.721Z,42.00
2019-02-25T04:31:00.729Z,42.30
2019-02-25T04:32:01.757Z,41.80
2019-02-25T04:33:02.768Z,41.80
2019-02-25T04:34:03.793Z,41.00
2019-02-25T04:35:07.092Z,40.60
2019-02-25T04:36:08.097Z,41.50
2019-02-25T04:37:09.172Z,42.00
2019-02-25T04:38:10.182Z,42.00
2019-02-25T04:39:11.210Z,42.10
2019-02-25T04:40:13.055Z,40.50
2019-02-25T04:41:14.140Z,40.20
2019-02-25T04:42:15.169Z,39.80
2019-02-25T04:43:16.238Z,39.40
2019-02-25T04:44:17.296Z,39.10
2019-02-25T04:45:19.537Z,39.00
2019-02-25T04:46:20.552Z,39.70
2019-02-25T04:47:21.568Z,39.60
2019-02-25T04:48:22.584Z,39.70
2019-02-25T04:49:23.605Z,39.20
2019-02-25T04:50:24.617Z,39.40
2019-02-25T04:51:25.641Z,40.20
2019-02-25T04:52:26.661Z,40.20
2019-02-25T04:53:27.807Z,39.80
2019-02-25T04:54:28.912Z,40.30
2019-02-25T04:55:29.933Z,40.30
2019-02-25T04:56:30.969Z,40.20
2019-02-25T04:57:31.992Z,39.70
2019-02-25T04:58:33.002Z,40.00
2019-02-25T04:59:34.012Z,40.30
2019-02-25T05:00:35.022Z,41.00
2019-02-25T05:01:36.039Z,41.20
2019-02-25T05:02:37.060Z,41.40
2019-02-25T05:03:38.074Z,41.20
2019-02-25T05:04:39.081Z,40.50
2019-02-25T05:05:40.147Z,40.10
2019-02-25T05:06:41.224Z,39.80
2019-02-25T05:07:42.349Z,39.90
2019-02-25T05:08:43.369Z,40.60
2019-02-25T05:09:44.388Z,41.10
2019-02-25T05:10:45.395Z,40.70
2019-02-25T05:11:46.424Z,40.80
2019-02-25T05:12:58.143Z,41.00
2019-02-25T05:13:59.150Z,41.20
2019-02-25T05:15:00.176Z,41.60
2019-02-25T05:16:01.187Z,41.80
2019-02-25T05:17:02.205Z,41.80
2019-02-25T05:18:03.342Z,41.70
2019-02-25T05:19:04.619Z,41.70
2019-02-25T05:20:06.332Z,41.70
2019-02-25T05:21:07.352Z,41.70
2019-02-25T05:22:08.688Z,41.70
2019-02-25T05:23:09.755Z,41.70
2019-02-25T05:24:10.779Z,41.70
2019-02-25T05:25:11.888Z,41.80
2019-02-25T05:26:12.898Z,41.40
2019-02-25T05:27:13.915Z,41.10
2019-02-25T05:28:14.932Z,41.80
2019-02-25T05:29:15.951Z,42.30
2019-02-25T05:30:16.962Z,42.70
2019-02-25T05:31:18.076Z,42.70
2019-02-25T05:32:19.131Z,43.00
2019-02-25T05:33:20.151Z,43.00
2019-02-25T05:34:21.150Z,43.20
2019-02-25T05:35:22.177Z,43.50
2019-02-25T05:36:23.192Z,43.80
2019-02-25T05:37:24.221Z,44.10
2019-02-25T05:38:25.267Z,44.40
2019-02-25T05:39:26.659Z,43.60
2019-02-25T05:40:27.720Z,43.80
2019-02-25T05:41:28.737Z,43.60
2019-02-25T05:42:29.752Z,43.70
2019-02-25T05:43:30.783Z,43.50
2019-02-25T05:44:31.826Z,43.10
2019-02-25T05:45:32.843Z,43.10
2019-02-25T05:46:33.868Z,43.40
2019-02-25T05:47:34.879Z,43.10
2019-02-25T05:48:35.985Z,43.00
2019-02-25T05:49:36.992Z,42.60
2019-02-25T05:50:38.020Z,42.60
2019-02-25T05:51:39.036Z,42.60
2019-02-25T05:52:40.084Z,43.40
2019-02-25T05:53:41.093Z,44.00
2019-02-25T05:54:42.108Z,44.20
2019-02-25T05:55:43.125Z,44.30
2019-02-25T05:56:44.156Z,44.20
2019-02-25T05:57:45.174Z,44.20
2019-02-25T05:58:46.432Z,44.60
2019-02-25T05:59:47.450Z,44.60
2019-02-25T06:00:50.359Z,44.50
2019-02-25T06:01:51.401Z,44.60
2019-02-25T06:02:52.441Z,44.40
2019-02-25T06:03:53.442Z,44.20
2019-02-25T06:04:54.475Z,43.50
2019-02-25T06:05:55.489Z,43.60
2019-02-25T06:06:56.508Z,43.60
2019-02-25T06:07:57.530Z,44.10
2019-02-25T06:08:58.538Z,45.70
2019-02-25T06:09:59.552Z,44.50
2019-02-25T06:11:00.725Z,44.80
2019-02-25T06:12:02.092Z,45.00
2019-02-25T06:13:03.129Z,44.40
2019-02-25T06:14:04.228Z,44.00
2019-02-25T06:15:13.423Z,44.10
2019-02-25T06:16:14.453Z,44.70
2019-02-25T06:17:15.472Z,43.60
2019-02-25T06:18:16.546Z,43.90
2019-02-25T06:19:17.541Z,43.80
2019-02-25T06:20:18.568Z,43.40
2019-02-25T06:21:23.815Z,42.90
2019-02-25T06:22:25.073Z,43.80
2019-02-25T06:23:26.103Z,42.70
2019-02-25T06:24:27.106Z,43.00
2019-02-25T06:25:28.146Z,42.60
2019-02-25T06:26:29.153Z,41.80
2019-02-25T06:27:30.917Z,41.80
2019-02-25T06:28:32.223Z,41.80
2019-02-25T06:29:33.241Z,41.30
2019-02-25T06:30:34.275Z,41.80
2019-02-25T06:31:35.304Z,41.80
2019-02-25T06:32:36.337Z,41.90
2019-02-25T06:33:37.400Z,42.00
2019-02-25T06:34:38.393Z,42.10
2019-02-25T06:35:39.408Z,42.30
2019-02-25T06:36:40.422Z,42.50
2019-02-25T06:37:41.431Z,42.40
2019-02-25T06:38:42.457Z,42.10
2019-02-25T06:39:43.477Z,42.50
2019-02-25T06:40:44.537Z,42.40
2019-02-25T06:41:45.557Z,42.50
2019-02-25T06:42:46.667Z,42.70
2019-02-25T06:43:49.942Z,42.90
2019-02-25T06:44:51.184Z,42.90
2019-02-25T06:45:52.212Z,42.80
2019-02-25T06:46:53.224Z,42.60
2019-02-25T06:47:54.287Z,42.60
2019-02-25T06:48:55.386Z,42.90
2019-02-25T06:49:56.396Z,42.40
2019-02-25T06:50:57.416Z,42.30
2019-02-25T06:51:58.437Z,43.20
2019-02-25T06:52:59.474Z,42.90
2019-02-25T06:54:00.569Z,42.40
2019-02-25T06:55:01.780Z,42.30
2019-02-25T06:56:02.796Z,42.80
2019-02-25T06:57:03.864Z,42.00
2019-02-25T06:58:04.891Z,42.40
2019-02-25T06:59:05.931Z,42.50
2019-02-25T07:00:12.915Z,43.50
2019-02-25T07:01:14.005Z,42.60
2019-02-25T07:02:15.028Z,42.80
2019-02-25T07:03:16.031Z,42.60
2019-02-25T07:04:19.221Z,42.40
2019-02-25T07:05:24.945Z,42.90
2019-02-25T07:06:30.676Z,42.10
2019-02-25T07:07:36.083Z,41.80
2019-02-25T07:08:53.805Z,41.80
2019-02-25T07:10:05.882Z,42.70
2019-02-25T07:11:11.568Z,42.30
2019-02-25T07:12:17.253Z,42.60
2019-02-25T07:13:20.168Z,42.50
2019-02-25T07:14:31.880Z,42.80
2019-02-25T07:15:43.415Z,42.50
2019-02-25T07:16:46.440Z,42.50
2019-02-25T07:17:49.412Z,42.60
2019-02-25T07:18:58.222Z,42.60
2019-02-25T07:20:15.344Z,42.50
2019-02-25T07:21:37.172Z,42.10
2019-02-25T07:22:40.124Z,42.30
2019-02-25T07:23:45.536Z,42.20
2019-02-25T07:24:52.873Z,41.70
2019-02-25T07:25:53.310Z,41.70
2019-02-25T07:27:04.985Z,41.90
2019-02-25T07:28:26.000Z,42.50
2019-02-25T07:29:31.833Z,42.40
2019-02-25T07:30:37.938Z,42.30
2019-02-25T07:31:43.481Z,42.80
2019-02-25T07:32:55.296Z,42.50
2019-02-25T07:33:58.206Z,42.20
2019-02-25T07:35:03.932Z,42.10
2019-02-25T07:36:06.869Z,41.90
2019-02-25T07:37:27.825Z,42.50
2019-02-25T07:38:39.028Z,41.90
2019-02-25T07:39:38.136Z,41.90
2019-02-25T07:40:46.850Z,41.80
2019-02-25T07:41:58.355Z,41.80
2019-02-25T07:43:03.903Z,42.00
2019-02-25T07:44:15.577Z,42.00
2019-02-25T07:45:27.245Z,42.00
2019-02-25T07:46:39.249Z,41.30
2019-02-25T07:47:48.162Z,41.10
2019-02-25T07:48:51.246Z,40.80
2019-02-25T07:49:56.673Z,40.70
2019-02-25T07:51:05.432Z,40.60
2019-02-25T07:52:14.287Z,41.00
2019-02-25T07:53:33.921Z,41.20
2019-02-25T07:54:42.740Z,41.20
2019-02-25T07:55:48.525Z,41.10
2019-02-25T07:57:06.422Z,41.00
2019-02-25T07:58:15.205Z,40.50
2019-02-25T07:59:26.963Z,40.30
2019-02-25T08:00:35.924Z,40.50
2019-02-25T08:01:38.841Z,40.50
2019-02-25T08:02:41.809Z,40.50
2019-02-25T08:03:44.724Z,40.60
2019-02-25T08:04:59.472Z,40.60
2019-02-25T08:06:02.444Z,40.60
2019-02-25T08:07:05.382Z,40.80
2019-02-25T08:08:11.056Z,40.80
2019-02-25T08:09:19.805Z,40.40
2019-02-25T08:10:22.773Z,40.10
2019-02-25T08:11:31.491Z,39.90
2019-02-25T08:12:40.336Z,39.70
2019-02-25T08:13:55.068Z,39.70
2019-02-25T08:14:58.008Z,39.20
2019-02-25T08:16:06.740Z,39.20
2019-02-25T08:17:26.595Z,39.30
2019-02-25T08:18:29.609Z,39.50
2019-02-25T08:19:35.367Z,39.10
2019-02-25T08:20:44.019Z,39.10
2019-02-25T08:21:46.993Z,38.90
2019-02-25T08:22:49.968Z,38.90
2019-02-25T08:23:52.896Z,38.70
2019-02-25T08:25:04.592Z,38.70
2019-02-25T08:26:22.599Z,38.70
2019-02-25T08:27:28.372Z,38.70
2019-02-25T08:28:32.640Z,38.50
2019-02-25T08:29:41.849Z,38.50
2019-02-25T08:30:50.408Z,38.50
2019-02-25T08:31:53.352Z,37.80
2019-02-25T08:32:56.273Z,37.00
2019-02-25T08:34:01.968Z,36.40
2019-02-25T08:35:13.360Z,36.20
2019-02-25T08:36:51.560Z,36.10
2019-02-25T08:38:10.565Z,35.70
2019-02-25T08:39:14.027Z,35.00
2019-02-25T08:40:26.331Z,34.40
2019-02-25T08:41:29.564Z,34.80
2019-02-25T08:42:38.303Z,35.40
2019-02-25T08:43:43.930Z,35.40
2019-02-25T08:44:49.629Z,35.40
2019-02-25T08:45:58.381Z,35.40
2019-02-25T08:47:01.321Z,35.40
2019-02-25T08:48:04.238Z,35.30
2019-02-25T08:49:09.976Z,34.80
2019-02-25T08:50:11.929Z,34.70
2019-02-25T08:51:13.076Z,34.80
2019-02-25T08:52:14.096Z,34.70
2019-02-25T08:53:15.255Z,34.90
2019-02-25T08:54:16.323Z,34.80
2019-02-25T08:55:17.354Z,34.50
2019-02-25T08:56:18.567Z,34.30
2019-02-25T08:57:19.724Z,34.00
2019-02-25T08:58:20.914Z,34.20
2019-02-25T08:59:21.943Z,34.70
2019-02-25T09:00:22.975Z,33.90
2019-02-25T09:01:24.018Z,34.00
2019-02-25T09:02:26.594Z,34.00
2019-02-25T09:03:27.701Z,33.60
2019-02-25T09:04:28.724Z,33.50
2019-02-25T09:05:29.748Z,33.20
2019-02-25T09:06:30.782Z,33.20
2019-02-25T09:07:31.916Z,33.20
2019-02-25T09:08:32.939Z,33.20
2019-02-25T09:09:34.000Z,33.20
2019-02-25T09:10:35.035Z,33.20
2019-02-25T09:11:36.071Z,33.20
2019-02-25T09:12:37.233Z,33.00
2019-02-25T09:13:38.302Z,32.90
2019-02-25T09:14:39.329Z,32.80
2019-02-25T09:15:40.395Z,32.50
2019-02-25T09:16:41.423Z,31.80
2019-02-25T09:17:42.704Z,31.80
2019-02-25T09:18:43.827Z,31.20
2019-02-25T09:19:44.859Z,31.20
2019-02-25T09:20:45.896Z,31.20
2019-02-25T09:21:46.923Z,30.90
2019-02-25T09:22:47.976Z,30.70
2019-02-25T09:23:49.356Z,30.40
2019-02-25T09:24:50.372Z,30.20
2019-02-25T09:25:53.695Z,30.40
2019-02-25T09:26:54.781Z,30.30
2019-02-25T09:27:55.918Z,30.10
2019-02-25T09:28:57.466Z,30.10
2019-02-25T09:29:58.814Z,30.00
2019-02-25T09:30:59.911Z,29.80
2019-02-25T09:32:00.946Z,29.70
2019-02-25T09:33:01.969Z,29.90
2019-02-25T09:34:03.106Z,30.10
2019-02-25T09:35:04.657Z,30.10
2019-02-25T09:36:05.704Z,29.90
2019-02-25T09:37:06.741Z,30.00
2019-02-25T09:38:07.764Z,30.20
2019-02-25T09:39:09.285Z,29.90
2019-02-25T09:40:14.117Z,29.70
2019-02-25T09:41:15.136Z,29.50
2019-02-25T09:42:16.185Z,29.50
2019-02-25T09:43:17.205Z,29.50
2019-02-25T09:44:18.326Z,29.40
2019-02-25T09:45:19.453Z,29.00
2019-02-25T09:46:20.551Z,28.70
2019-02-25T09:47:21.576Z,28.20
2019-02-25T09:48:22.610Z,28.10
2019-02-25T09:49:23.626Z,27.00
2019-02-25T09:50:24.640Z,27.50
2019-02-25T09:51:25.676Z,27.50
2019-02-25T09:52:26.700Z,27.50
2019-02-25T09:53:27.861Z,27.60
2019-02-25T09:54:28.940Z,27.40
2019-02-25T09:55:29.977Z,27.20
2019-02-25T09:56:31.229Z,27.10
2019-02-25T09:57:32.259Z,27.30
2019-02-25T09:58:33.280Z,27.00
2019-02-25T09:59:34.305Z,27.10
2019-02-25T10:00:35.545Z,26.70
2019-02-25T10:01:36.565Z,26.60
2019-02-25T10:02:37.633Z,26.70
2019-02-25T10:03:38.660Z,27.00
2019-02-25T10:04:40.014Z,27.00
2019-02-25T10:05:42.772Z,26.80
2019-02-25T10:06:43.824Z,26.80
2019-02-25T10:07:44.837Z,27.10
2019-02-25T10:08:46.578Z,26.40
2019-02-25T10:09:47.773Z,26.70
2019-02-25T10:10:48.824Z,27.00
2019-02-25T10:11:49.848Z,26.90
2019-02-25T10:12:50.885Z,26.60
2019-02-25T10:13:52.017Z,26.50
2019-02-25T10:14:53.137Z,26.90
2019-02-25T10:15:54.185Z,26.10
2019-02-25T10:16:55.203Z,26.50
2019-02-25T10:17:56.242Z,26.30
2019-02-25T10:18:57.310Z,26.30
2019-02-25T10:19:58.311Z,26.00
2019-02-25T10:20:59.348Z,25.70
2019-02-25T10:22:00.702Z,25.60
2019-02-25T10:23:01.776Z,26.00
2019-02-25T10:24:02.792Z,25.50
2019-02-25T10:25:06.616Z,25.00
2019-02-25T10:26:07.653Z,25.60
2019-02-25T10:27:08.693Z,26.00
2019-02-25T10:28:09.731Z,26.30
2019-02-25T10:29:10.765Z,26.30
2019-02-25T10:30:14.389Z,25.90
2019-02-25T10:31:17.327Z,26.00
2019-02-25T10:32:18.332Z,26.10
2019-02-25T10:33:19.379Z,26.60
2019-02-25T10:34:20.796Z,26.60
2019-02-25T10:35:27.177Z,26.60
2019-02-25T10:36:28.349Z,26.50
2019-02-25T10:37:29.376Z,26.80
2019-02-25T10:38:30.406Z,26.70
2019-02-25T10:39:31.439Z,26.10
2019-02-25T10:40:32.456Z,25.80
2019-02-25T10:41:33.468Z,26.00
2019-02-25T10:42:36.082Z,25.80
2019-02-25T10:43:37.442Z,26.10
2019-02-25T10:44:40.206Z,25.70
2019-02-25T10:45:43.239Z,25.70
2019-02-25T10:46:44.963Z,26.00
2019-02-25T10:47:49.015Z,26.40
2019-02-25T10:48:54.265Z,26.50
2019-02-25T10:49:53.102Z,26.40
2019-02-25T10:50:56.276Z,26.60
2019-02-25T10:51:57.085Z,26.50
2019-02-25T10:53:03.375Z,26.30
2019-02-25T10:54:01.052Z,26.10
2019-02-25T10:55:14.183Z,26.20
2019-02-25T10:56:19.898Z,25.90
2019-02-25T10:57:23.871Z,26.00
2019-02-25T10:58:26.878Z,26.40
2019-02-25T10:59:27.800Z,26.50
2019-02-25T11:00:28.896Z,26.40
2019-02-25T11:01:29.913Z,26.10
2019-02-25T11:02:30.936Z,26.20
2019-02-25T11:03:31.961Z,26.20
2019-02-25T11:04:32.988Z,26.40
2019-02-25T11:05:34.023Z,26.50
2019-02-25T11:06:36.008Z,26.40
2019-02-25T11:07:39.832Z,26.00
2019-02-25T11:08:43.602Z,25.90
2019-02-25T11:09:59.559Z,25.80
2019-02-25T11:11:02.476Z,26.20
2019-02-25T11:12:03.554Z,26.60
2019-02-25T11:13:04.564Z,26.90
2019-02-25T11:14:07.118Z,26.70
2019-02-25T11:15:09.995Z,26.70
2019-02-25T11:16:13.981Z,26.50
2019-02-25T11:17:16.165Z,26.20
2019-02-25T11:18:20.283Z,25.80
2019-02-25T11:19:22.367Z,25.90
2019-02-25T11:20:24.448Z,25.90
2019-02-25T11:21:25.566Z,25.90
2019-02-25T11:22:26.627Z,26.10
2019-02-25T11:23:27.820Z,26.30
2019-02-25T11:24:28.892Z,26.00
2019-02-25T11:25:30.187Z,26.00
2019-02-25T11:26:32.920Z,26.10
2019-02-25T11:27:35.863Z,26.10
2019-02-25T11:28:39.178Z,26.10
2019-02-25T11:29:42.037Z,26.10
2019-02-25T11:30:44.878Z,26.10
2019-02-25T11:31:47.342Z,26.30
2019-02-25T11:32:49.592Z,26.20
2019-02-25T11:33:51.836Z,26.20
2019-02-25T11:34:52.868Z,26.30
2019-02-25T11:35:53.893Z,26.30
2019-02-25T11:36:57.207Z,26.30
2019-02-25T11:37:59.842Z,26.30
2019-02-25T11:39:02.466Z,26.30
2019-02-25T11:40:11.542Z,26.30
2019-02-25T11:41:12.572Z,26.20
2019-02-25T11:42:16.426Z,25.60
2019-02-25T11:43:18.660Z,26.40
2019-02-25T11:44:21.015Z,26.40
2019-02-25T11:45:22.630Z,26.40
2019-02-25T11:46:23.753Z,26.20
2019-02-25T11:47:24.804Z,26.20
2019-02-25T11:48:25.928Z,26.50
2019-02-25T11:49:26.972Z,26.00
2019-02-25T11:50:28.030Z,25.80
2019-02-25T11:51:29.041Z,25.80
2019-02-25T11:52:30.214Z,26.40
2019-02-25T11:53:31.240Z,26.30
2019-02-25T11:54:32.336Z,26.30
2019-02-25T11:55:33.409Z,26.30
2019-02-25T11:56:34.439Z,26.40
2019-02-25T11:57:35.519Z,26.70
2019-02-25T11:58:36.583Z,26.70
2019-02-25T11:59:37.634Z,26.80
2019-02-25T12:00:39.866Z,26.80
2019-02-25T12:01:41.198Z,26.90
2019-02-25T12:02:42.331Z,26.90
2019-02-25T12:03:43.357Z,26.90
2019-02-25T12:04:44.405Z,27.30
2019-02-25T12:05:45.520Z,27.60
2019-02-25T12:06:46.559Z,27.00
2019-02-25T12:07:47.576Z,26.90
2019-02-25T12:08:48.660Z,27.40
2019-02-25T12:09:49.685Z,27.50
2019-02-25T12:10:50.718Z,27.10
2019-02-25T12:11:51.733Z,27.10
2019-02-25T12:12:52.776Z,26.60
2019-02-25T12:13:53.796Z,26.50
2019-02-25T12:14:54.820Z,27.10
2019-02-25T12:15:55.832Z,27.30
2019-02-25T12:16:56.849Z,27.20
2019-02-25T12:17:57.874Z,27.40
2019-02-25T12:18:58.903Z,27.20
2019-02-25T12:19:59.924Z,27.20
2019-02-25T12:21:00.937Z,26.70
2019-02-25T12:22:01.954Z,27.00
2019-02-25T12:23:03.093Z,26.90
2019-02-25T12:24:04.118Z,26.70
2019-02-25T12:25:10.768Z,26.80
2019-02-25T12:26:11.779Z,26.90
2019-02-25T12:27:12.823Z,26.90
2019-02-25T12:28:13.828Z,26.80
2019-02-25T12:29:14.862Z,26.80
2019-02-25T12:30:27.436Z,26.70
2019-02-25T12:31:28.592Z,26.80
2019-02-25T12:32:29.690Z,26.90
2019-02-25T12:33:30.720Z,26.80
2019-02-25T12:34:31.760Z,27.10
2019-02-25T12:35:32.814Z,26.80
2019-02-25T12:36:33.850Z,27.00
2019-02-25T12:37:34.888Z,26.90
2019-02-25T12:38:35.913Z,27.10
2019-02-25T12:39:36.949Z,27.40
2019-02-25T12:40:37.977Z,26.70
2019-02-25T12:41:39.005Z,27.30
2019-02-25T12:42:40.040Z,26.60
2019-02-25T12:43:41.066Z,26.60
2019-02-25T12:44:42.092Z,27.00
2019-02-25T12:45:43.116Z,26.60
2019-02-25T12:46:44.243Z,26.40
2019-02-25T12:47:45.329Z,26.30
2019-02-25T12:48:46.337Z,26.50
2019-02-25T12:49:47.359Z,26.40
2019-02-25T12:50:48.387Z,26.50
2019-02-25T12:51:49.411Z,26.60
2019-02-25T12:52:50.440Z,26.60
2019-02-25T12:53:53.684Z,26.80
2019-02-25T12:54:55.209Z,27.50
2019-02-25T12:55:56.287Z,27.40
2019-02-25T12:56:57.297Z,27.50
2019-02-25T12:57:58.333Z,27.50
2019-02-25T12:58:59.427Z,27.90
2019-02-25T13:00:00.558Z,28.00
2019-02-25T13:01:01.659Z,28.00
2019-02-25T13:02:02.696Z,28.00
2019-02-25T13:03:03.783Z,28.00
2019-02-25T13:04:04.869Z,28.00
2019-02-25T13:05:12.622Z,28.10
2019-02-25T13:06:13.701Z,28.50
2019-02-25T13:07:14.717Z,28.30
2019-02-25T13:08:15.736Z,28.10
2019-02-25T13:09:16.780Z,28.10
2019-02-25T13:10:17.916Z,28.70
2019-02-25T13:11:18.927Z,28.90
2019-02-25T13:12:19.957Z,29.10
2019-02-25T13:13:21.077Z,29.70
2019-02-25T13:14:22.117Z,29.50
2019-02-25T13:15:23.151Z,29.50
2019-02-25T13:16:24.250Z,29.60
2019-02-25T13:17:25.494Z,29.40
2019-02-25T13:18:26.500Z,29.20
2019-02-25T13:19:27.524Z,29.10
2019-02-25T13:20:28.533Z,29.10
2019-02-25T13:21:29.578Z,29.00